Eastham, MA

6:11 PM EDT on March 27, 2017 (GMT -0400)
Muddy Pond | | Change Station

Elev 16 ft 41.83 °N, 69.98 °W | Updated 15 seconds ago

Overcast
Overcast
47.3 °F
Feels Like 47 °F
N
0.0
Wind Variable Wind from WSW
Gusts 4.0 mph

Today
High -- | Low -- °F
--% Chance of Precip.
Yesterday
High -- | Low -- °F
Precip. -- in
Pressure 29.99 in
Visibility 0.5 miles
Clouds
Windchill 47 °F
Dew Point 47 °F
Humidity 100%
Rainfall 0.05 in
Snow Depth Not available.
6:30 AM 7:00 PM
Waning Crescent, 0% visible
SPECI KCQX 272202Z AUTO 21006KT 1/2SM FG VV002 07/07 A2999 RMK AO2 T00720072
Pressure 29.99 in
Visibility 0.5 miles
Clouds
Windchill 47 °F
Dew Point 47 °F
Humidity 100%
Rainfall 0.05 in
Snow Depth Not available.
6:30 AM 7:00 PM
Waning Crescent, 0% visible
SPECI KCQX 272202Z AUTO 21006KT 1/2SM FG VV002 07/07 A2999 RMK AO2 T00720072

Get Severe Weather Alerts

Thanks for signing up!

Be on the lookout for a verification email in your inbox.

You'll start receiving the daily forecast at 8 AM.

×

10-Day Weather Forecast

Almanac

Astronomy

Mar. 27, 2017 Rise Set
Actual Time
Civil Twilight
Nautical Twilight
Astronomical Twilight
Moon
Length of Visible Light
Length of Day
Tomorrow will be .
, % of the Moon is Illuminated

Today's Extremes

State Highs State Lows

Community

WunderPhotos

Upload Photos

1,962,540 photos uploaded!

WunderBlog® & News

Nearby

Air Quality

  Air Quality AQ Index Pollutant
Not available.

Snow Depth

Station Depth Elevation

Earthquake Activity

City Distance Mag. Time & Date
Minimum magnitude displayed is 2.5.

Earthquake Activity

City Distance Mag. Time & Date
Minimum magnitude displayed is 2.5.

Coastal Water Temperatures

Place Temperature

Stations

Nearby Weather Stations

Station Location Temp. Windchill Dew Point Humidity Wind Precip. Elev Updated Type
                   

Watches & Warnings

There are currently no watches in effect.